createdAt,value
2022-09-04T00:04:25.745Z,1.08
2022-09-04T00:10:49.833Z,1.20
2022-09-04T00:17:04.016Z,1.27
2022-09-04T00:30:02.112Z,1.40
2022-09-04T00:36:05.455Z,1.15
2022-09-04T00:42:51.397Z,1.27
2022-09-04T00:49:11.898Z,1.33
2022-09-04T00:55:22.670Z,1.20
2022-09-04T01:01:28.538Z,1.20
2022-09-04T01:07:50.063Z,1.30
2022-09-04T01:13:51.977Z,1.40
2022-09-04T01:20:09.732Z,1.25
2022-09-04T01:26:23.053Z,1.20
2022-09-04T01:32:49.023Z,1.25
2022-09-04T01:38:57.719Z,1.10
2022-09-04T01:44:59.493Z,1.10
2022-09-04T01:51:12.286Z,1.25
2022-09-04T01:57:59.578Z,1.25
2022-09-04T02:04:41.334Z,1.35
2022-09-04T02:10:49.156Z,1.10
2022-09-04T02:17:09.189Z,1.27
2022-09-04T02:23:52.553Z,1.35
2022-09-04T02:30:08.303Z,1.05
2022-09-04T02:36:30.604Z,1.20
2022-09-04T02:42:51.552Z,1.10
2022-09-04T02:49:13.405Z,1.08
2022-09-04T02:55:49.200Z,1.55
2022-09-04T03:02:00.990Z,1.52
2022-09-04T03:08:13.287Z,1.38
2022-09-04T03:14:38.451Z,1.75
2022-09-04T03:20:56.609Z,1.70
2022-09-04T03:27:04.119Z,1.27
2022-09-04T03:33:21.626Z,1.30
2022-09-04T03:39:36.566Z,1.42
2022-09-04T03:46:26.964Z,1.40
2022-09-04T03:53:05.869Z,1.50
2022-09-04T03:59:29.413Z,1.20
2022-09-04T04:05:53.491Z,1.30
2022-09-04T04:12:05.123Z,1.65
2022-09-04T04:18:31.638Z,1.27
2022-09-04T04:25:01.291Z,1.30
2022-09-04T04:31:20.634Z,1.40
2022-09-04T04:37:50.340Z,1.50
2022-09-04T04:44:13.100Z,1.30
2022-09-04T04:50:28.143Z,1.45
2022-09-04T04:56:46.599Z,1.30
2022-09-04T05:03:32.468Z,1.33
2022-09-04T05:09:53.661Z,1.20
2022-09-04T05:16:29.257Z,1.67
2022-09-04T05:22:44.235Z,1.50
2022-09-04T05:29:12.942Z,1.40
2022-09-04T05:35:37.064Z,1.60
2022-09-04T05:42:04.592Z,1.42
2022-09-04T05:48:13.910Z,1.77
2022-09-04T05:54:31.175Z,1.50
2022-09-04T06:00:52.129Z,1.50
2022-09-04T06:07:15.078Z,1.90
2022-09-04T06:13:51.177Z,1.58
2022-09-04T06:20:30.092Z,1.60
2022-09-04T06:26:34.733Z,1.90
2022-09-04T06:32:52.232Z,1.50
2022-09-04T06:39:03.026Z,1.52
2022-09-04T06:45:43.528Z,1.90
2022-09-04T06:52:27.668Z,1.60
2022-09-04T06:58:38.451Z,1.60
2022-09-04T07:04:45.819Z,1.70
2022-09-04T07:11:02.689Z,1.85
2022-09-04T07:17:10.811Z,1.60
2022-09-04T07:23:57.844Z,1.60
2022-09-04T07:30:09.437Z,1.70
2022-09-04T07:36:25.309Z,1.50
2022-09-04T07:42:43.364Z,1.63
2022-09-04T07:49:10.159Z,1.58
2022-09-04T07:55:40.653Z,1.70
2022-09-04T08:02:24.923Z,1.65
2022-09-04T08:09:04.759Z,1.60
2022-09-04T08:15:22.420Z,1.50
2022-09-04T08:21:35.740Z,1.20
2022-09-04T08:27:47.686Z,1.77
2022-09-04T08:34:00.039Z,1.50
2022-09-04T08:40:11.593Z,1.27
2022-09-04T08:46:28.770Z,1.50
2022-09-04T08:52:34.021Z,1.45
2022-09-04T08:59:23.927Z,1.73
2022-09-04T09:05:54.779Z,1.40
2022-09-04T09:12:15.703Z,2.22
2022-09-04T09:18:56.701Z,1.52
2022-09-04T09:25:21.948Z,1.48
2022-09-04T09:32:00.420Z,1.40
2022-09-04T09:38:37.954Z,1.58
2022-09-04T09:44:56.162Z,1.70
2022-09-04T09:51:28.968Z,1.42
2022-09-04T09:58:08.306Z,1.52
2022-09-04T10:04:16.274Z,1.23
2022-09-04T10:10:42.899Z,1.20
2022-09-04T10:17:05.680Z,1.30
2022-09-04T10:23:32.357Z,1.00
2022-09-04T10:30:03.268Z,0.98
2022-09-04T10:36:20.941Z,1.05
2022-09-04T10:42:43.329Z,0.90
2022-09-04T10:49:00.092Z,0.80
2022-09-04T10:55:23.693Z,0.90
2022-09-04T11:01:47.978Z,0.90
2022-09-04T11:08:20.912Z,0.70
2022-09-04T11:14:39.005Z,0.60
2022-09-04T11:21:03.791Z,0.60
2022-09-04T11:27:31.006Z,0.73
2022-09-04T11:33:38.939Z,0.70
2022-09-04T11:39:55.946Z,0.70
2022-09-04T11:46:35.083Z,0.52
2022-09-04T11:52:55.691Z,0.70
2022-09-04T11:59:23.650Z,0.70
2022-09-04T12:05:40.605Z,0.50
2022-09-04T12:11:56.635Z,0.60
2022-09-04T12:18:22.263Z,0.73
2022-09-04T12:24:49.793Z,0.45
2022-09-04T12:31:15.059Z,0.80
2022-09-04T12:37:51.198Z,0.55
2022-09-04T12:44:13.206Z,0.68
2022-09-04T12:50:32.771Z,0.63
2022-09-04T12:56:42.489Z,0.60
2022-09-04T13:03:14.348Z,0.70
2022-09-04T13:09:16.168Z,0.65
2022-09-04T13:15:43.853Z,0.80
2022-09-04T13:22:12.252Z,0.70
2022-09-04T13:28:29.161Z,0.60
2022-09-04T13:35:02.150Z,0.73
2022-09-04T13:47:32.759Z,0.68
2022-09-04T13:54:02.686Z,0.50
2022-09-04T14:00:08.859Z,0.47
2022-09-04T14:06:15.102Z,0.80
2022-09-04T14:12:29.664Z,0.95
2022-09-04T14:18:49.826Z,0.77
2022-09-04T14:25:22.822Z,0.70
2022-09-04T14:31:35.753Z,0.70
2022-09-04T14:37:51.111Z,1.02
2022-09-04T14:44:03.474Z,0.68
2022-09-04T14:50:09.952Z,0.70
2022-09-04T14:56:11.762Z,0.65
2022-09-04T15:02:23.427Z,0.80
2022-09-04T15:08:39.895Z,0.90
2022-09-04T15:14:47.379Z,0.85
2022-09-04T15:21:27.750Z,0.93
2022-09-04T15:27:49.698Z,0.90
2022-09-04T15:34:10.473Z,1.00
2022-09-04T15:40:30.228Z,0.98
2022-09-04T15:46:51.894Z,1.00
2022-09-04T15:52:57.580Z,1.05
2022-09-04T15:59:15.199Z,0.80
2022-09-04T16:05:51.312Z,0.90
2022-09-04T16:12:05.824Z,1.10
2022-09-04T16:18:29.187Z,1.25
2022-09-04T16:24:39.762Z,1.00
2022-09-04T16:30:45.044Z,1.10
2022-09-04T16:37:02.163Z,1.10
2022-09-04T16:43:27.828Z,0.90
2022-09-04T16:49:49.138Z,1.55
2022-09-04T16:56:01.852Z,1.20
2022-09-04T17:02:36.064Z,1.40
2022-09-04T17:09:21.465Z,1.05
2022-09-04T17:15:30.067Z,1.25
2022-09-04T17:27:20.630Z,1.38
2022-09-04T17:29:28.099Z,1.08
2022-09-04T17:40:53.290Z,1.27
2022-09-04T17:42:15.121Z,1.33
2022-09-04T17:48:24.496Z,1.25
2022-09-04T17:54:30.776Z,2.05
2022-09-04T18:01:15.106Z,1.45
2022-09-04T18:07:55.804Z,1.50
2022-09-04T18:13:52.904Z,1.73
2022-09-04T18:20:24.211Z,1.70
2022-09-04T18:26:40.056Z,1.67
2022-09-04T18:37:09.264Z,2.03
2022-09-04T18:39:45.221Z,1.80
2022-09-04T18:50:39.643Z,1.90
2022-09-04T18:52:45.900Z,1.80
2022-09-04T18:58:56.259Z,1.65
2022-09-04T19:05:02.209Z,2.13
2022-09-04T19:11:20.549Z,1.95
2022-09-04T19:17:31.025Z,2.30
2022-09-04T19:23:34.682Z,2.00
2022-09-04T19:29:56.415Z,2.15
2022-09-04T19:36:38.270Z,2.05
2022-09-04T19:46:00.357Z,2.00
2022-09-04T19:51:49.134Z,1.98
2022-09-04T19:55:56.123Z,2.30
2022-09-04T20:02:02.752Z,2.22
2022-09-04T20:08:09.764Z,2.28
2022-09-04T20:14:37.677Z,2.25
2022-09-04T20:21:15.645Z,2.10
2022-09-04T20:27:24.424Z,2.08
2022-09-04T20:33:34.477Z,2.65
2022-09-04T20:39:43.949Z,2.03
2022-09-04T20:50:21.840Z,2.33
2022-09-04T20:52:50.657Z,2.50
2022-09-04T21:03:10.524Z,2.35
2022-09-04T21:06:10.518Z,2.35
2022-09-04T21:12:23.775Z,2.00
2022-09-04T21:18:45.913Z,2.17
2022-09-04T21:25:22.540Z,2.30
2022-09-04T21:31:44.586Z,2.28
2022-09-04T21:37:58.699Z,2.40
2022-09-04T21:44:25.203Z,2.60
2022-09-04T21:50:45.513Z,2.60
2022-09-04T22:02:32.534Z,2.70
2022-09-04T22:03:34.746Z,2.30
2022-09-04T22:13:30.138Z,2.70
2022-09-04T22:16:42.179Z,2.30
2022-09-04T22:23:07.384Z,2.30
2022-09-04T22:29:47.049Z,2.33
2022-09-04T22:36:13.484Z,2.80
2022-09-04T22:42:36.481Z,2.67
2022-09-04T22:49:12.486Z,1.83
2022-09-04T22:56:23.371Z,2.30
2022-09-04T23:03:04.101Z,2.40
2022-09-04T23:13:44.740Z,2.10
2022-09-04T23:16:18.811Z,2.10
2022-09-04T23:26:49.611Z,2.20
2022-09-04T23:29:45.182Z,2.00
2022-09-04T23:36:09.557Z,2.40
2022-09-04T23:42:30.281Z,1.95
2022-09-04T23:49:19.828Z,1.85
2022-09-04T23:55:48.986Z,2.60
